Casar, North Carolina
Current Conditions -  °F | °C
As of 9:55 AM on Friday 19 Dec 2014 (Local Time) from KEHO Reporting Station
Clear Clear  
Wind Chill:   Ceiling: Unl
Heat Index:   Visibility: 10mi
Dew Point: -2°   Wind: 3mph
Humidity: 49%   Direction: 70°ENE
Pressure: 30.17"   Gusts: NA
Location:  35.51°N, 81.62°W
Report Text: KEHO 191455Z AUTO 07003KT 10SM CLR 08/M02 A3017 RMK AO2 T00761024
Loading
Personal Weather Stations






























Interactive Weather Map New forecast layout! Learn more

10-Day Weather Forecast

Advertisements
Track Severe Weather on mobile